createdAt,value
2019-06-27T00:03:19.383Z,23.00
2019-06-27T00:08:25.296Z,22.80
2019-06-27T00:13:31.171Z,22.80
2019-06-27T00:18:37.109Z,22.80
2019-06-27T00:23:42.998Z,22.60
2019-06-27T00:28:48.897Z,22.40
2019-06-27T00:33:54.812Z,22.40
2019-06-27T00:39:00.748Z,22.40
2019-06-27T00:44:06.630Z,22.40
2019-06-27T00:49:12.486Z,22.40
2019-06-27T00:54:18.293Z,22.50
2019-06-27T00:59:24.313Z,22.60
2019-06-27T01:04:30.160Z,22.50
2019-06-27T01:09:36.054Z,22.20
2019-06-27T01:14:41.981Z,22.10
2019-06-27T01:19:58.157Z,22.20
2019-06-27T01:25:14.495Z,22.20
2019-06-27T01:30:20.888Z,22.00
2019-06-27T01:35:29.853Z,21.90
2019-06-27T01:40:48.201Z,21.90
2019-06-27T01:45:57.437Z,22.10
2019-06-27T01:51:03.337Z,22.00
2019-06-27T01:56:10.186Z,22.00
2019-06-27T02:01:16.327Z,22.00
2019-06-27T02:06:22.249Z,22.20
2019-06-27T02:11:28.165Z,22.20
2019-06-27T02:16:34.149Z,22.10
2019-06-27T02:21:40.768Z,22.10
2019-06-27T02:26:46.651Z,22.00
2019-06-27T02:31:52.524Z,21.90
2019-06-27T02:36:58.399Z,21.80
2019-06-27T02:42:04.430Z,21.60
2019-06-27T02:47:10.413Z,21.70
2019-06-27T02:52:16.435Z,21.80
2019-06-27T02:57:22.385Z,21.80
2019-06-27T03:02:28.263Z,21.80
2019-06-27T03:07:34.145Z,22.10
2019-06-27T03:12:40.224Z,22.00
2019-06-27T03:17:46.255Z,21.80
2019-06-27T03:22:52.338Z,22.00
2019-06-27T03:27:58.219Z,21.80
2019-06-27T03:33:04.212Z,21.70
2019-06-27T03:38:10.071Z,21.80
2019-06-27T03:43:15.958Z,21.90
2019-06-27T03:48:21.867Z,21.80
2019-06-27T03:53:27.833Z,21.50
2019-06-27T03:58:33.743Z,21.40
2019-06-27T04:03:42.873Z,21.80
2019-06-27T04:08:47.212Z,21.50
2019-06-27T04:13:53.136Z,21.30
2019-06-27T04:18:59.512Z,21.30
2019-06-27T04:24:05.627Z,21.40
2019-06-27T04:29:31.495Z,21.60
2019-06-27T04:34:20.175Z,21.60
2019-06-27T04:39:26.728Z,21.60
2019-06-27T04:44:32.764Z,21.90
2019-06-27T04:49:38.687Z,22.10
2019-06-27T04:54:44.523Z,22.20
2019-06-27T04:59:53.956Z,22.20
2019-06-27T05:04:57.913Z,22.30
2019-06-27T05:10:03.829Z,22.60
2019-06-27T05:15:09.848Z,22.30
2019-06-27T05:20:15.773Z,22.40
2019-06-27T05:25:21.872Z,22.60
2019-06-27T05:30:27.738Z,22.70
2019-06-27T05:35:33.625Z,23.00
2019-06-27T05:40:39.836Z,23.20
2019-06-27T05:45:45.949Z,23.60
2019-06-27T05:50:51.895Z,23.80
2019-06-27T05:55:57.777Z,23.90
2019-06-27T06:01:03.756Z,24.20
2019-06-27T06:06:09.791Z,24.40
2019-06-27T06:11:15.983Z,24.70
2019-06-27T06:16:21.856Z,25.00
2019-06-27T06:21:27.784Z,25.10
2019-06-27T06:26:33.707Z,25.30
2019-06-27T06:31:39.907Z,25.40
2019-06-27T06:36:46.015Z,25.70
2019-06-27T06:41:51.949Z,25.70
2019-06-27T06:46:57.743Z,25.90
2019-06-27T06:52:03.700Z,26.10
2019-06-27T06:57:09.721Z,26.30
2019-06-27T07:02:15.764Z,26.50
2019-06-27T07:07:21.694Z,26.70
2019-06-27T07:12:27.572Z,26.80
2019-06-27T07:17:33.453Z,27.20
2019-06-27T07:22:39.375Z,27.30
2019-06-27T07:27:45.450Z,27.30
2019-06-27T07:32:51.896Z,27.20
2019-06-27T07:37:57.810Z,27.20
2019-06-27T07:43:03.723Z,27.10
2019-06-27T07:48:09.946Z,27.10
2019-06-27T07:53:15.771Z,27.40
2019-06-27T07:58:21.689Z,27.50
2019-06-27T08:03:27.588Z,27.60
2019-06-27T08:08:33.403Z,27.60
2019-06-27T08:13:39.191Z,27.60
2019-06-27T08:18:44.997Z,27.60
2019-06-27T08:23:50.826Z,27.70
2019-06-27T08:28:56.764Z,27.90
2019-06-27T08:34:02.548Z,27.90
2019-06-27T08:39:08.374Z,27.80
2019-06-27T08:44:14.318Z,27.60
2019-06-27T08:49:20.174Z,27.40
2019-06-27T08:54:26.000Z,27.30
2019-06-27T08:59:31.796Z,26.80
2019-06-27T09:04:37.631Z,26.70
2019-06-27T09:09:44.184Z,26.80
2019-06-27T09:14:50.008Z,27.00
2019-06-27T09:19:56.010Z,27.00
2019-06-27T09:25:01.894Z,27.20
2019-06-27T09:30:08.039Z,27.20
2019-06-27T09:35:13.989Z,27.20
2019-06-27T09:40:20.493Z,27.30
2019-06-27T09:45:28.155Z,27.40
2019-06-27T09:50:34.022Z,27.50
2019-06-27T09:55:39.803Z,27.30
2019-06-27T10:00:45.609Z,27.40
2019-06-27T10:05:51.426Z,27.40
2019-06-27T10:10:57.255Z,27.50
2019-06-27T10:16:03.046Z,27.50
2019-06-27T10:21:08.845Z,27.70
2019-06-27T10:26:14.679Z,27.70
2019-06-27T10:31:20.535Z,28.00
2019-06-27T10:36:26.362Z,28.00
2019-06-27T10:41:32.225Z,28.00
2019-06-27T10:46:38.011Z,28.10
2019-06-27T10:51:43.929Z,28.00
2019-06-27T10:56:49.739Z,28.20
2019-06-27T11:01:55.539Z,28.40
2019-06-27T11:07:01.385Z,28.30
2019-06-27T11:12:07.167Z,28.80
2019-06-27T11:17:12.940Z,29.10
2019-06-27T11:22:18.767Z,29.50
2019-06-27T11:27:27.293Z,30.20
2019-06-27T11:32:32.060Z,31.10
2019-06-27T11:37:37.861Z,31.40
2019-06-27T11:42:43.694Z,31.80
2019-06-27T11:47:49.638Z,32.10
2019-06-27T11:52:55.811Z,32.20
2019-06-27T11:58:01.593Z,32.40
2019-06-27T12:03:07.464Z,32.60
2019-06-27T12:08:13.237Z,32.70
2019-06-27T12:13:19.096Z,33.10
2019-06-27T12:18:24.897Z,33.10
2019-06-27T12:23:30.740Z,33.90
2019-06-27T12:28:36.528Z,33.70
2019-06-27T12:33:42.375Z,33.70
2019-06-27T12:38:48.195Z,34.40
2019-06-27T12:43:53.969Z,34.10
2019-06-27T12:48:59.799Z,34.10
2019-06-27T12:54:05.614Z,34.80
2019-06-27T12:59:11.404Z,35.20
2019-06-27T13:04:23.450Z,35.00
2019-06-27T13:09:24.741Z,35.20
2019-06-27T13:14:30.496Z,35.20
2019-06-27T13:19:39.607Z,35.50
2019-06-27T13:24:44.076Z,35.30
2019-06-27T13:29:49.856Z,35.30
2019-06-27T13:34:56.893Z,35.50
2019-06-27T13:40:04.791Z,35.50
2019-06-27T13:45:10.341Z,35.00
2019-06-27T13:50:16.255Z,35.00
2019-06-27T13:55:24.124Z,34.90
2019-06-27T14:00:38.108Z,35.20
2019-06-27T14:05:44.116Z,35.20
2019-06-27T14:10:49.949Z,35.00
2019-06-27T14:15:55.741Z,35.10
2019-06-27T14:21:01.543Z,35.10
2019-06-27T14:26:07.389Z,35.00
2019-06-27T14:31:13.194Z,35.20
2019-06-27T14:36:19.214Z,35.20
2019-06-27T14:41:25.015Z,35.20
2019-06-27T14:46:30.845Z,36.00
2019-06-27T14:51:36.658Z,36.00
2019-06-27T14:56:42.439Z,35.90
2019-06-27T15:01:48.294Z,36.40
2019-06-27T15:06:54.065Z,36.50
2019-06-27T15:11:59.836Z,36.70
2019-06-27T15:17:05.653Z,36.80
2019-06-27T15:22:11.503Z,37.40
2019-06-27T15:27:17.379Z,36.90
2019-06-27T15:32:23.650Z,36.50
2019-06-27T15:37:29.614Z,36.50
2019-06-27T15:42:35.414Z,36.30
2019-06-27T15:47:41.246Z,36.90
2019-06-27T15:52:47.042Z,36.60
2019-06-27T15:57:52.842Z,36.60
2019-06-27T16:02:58.711Z,36.20
2019-06-27T16:08:04.659Z,35.80
2019-06-27T16:13:10.522Z,35.80
2019-06-27T16:18:16.358Z,36.00
2019-06-27T16:23:22.117Z,35.80
2019-06-27T16:28:27.936Z,35.20
2019-06-27T16:33:33.753Z,35.50
2019-06-27T16:38:39.568Z,36.00
2019-06-27T16:43:45.358Z,36.40
2019-06-27T16:48:51.140Z,36.20
2019-06-27T16:53:56.951Z,36.00
2019-06-27T16:59:02.848Z,36.20
2019-06-27T17:04:08.665Z,36.40
2019-06-27T17:09:14.462Z,36.20
2019-06-27T17:14:20.263Z,36.30
2019-06-27T17:19:26.065Z,35.60
2019-06-27T17:24:31.934Z,35.40
2019-06-27T17:29:37.703Z,34.50
2019-06-27T17:34:43.536Z,34.50
2019-06-27T17:39:49.446Z,34.40
2019-06-27T17:44:55.272Z,33.80
2019-06-27T17:50:01.052Z,33.10
2019-06-27T17:55:07.521Z,32.70
2019-06-27T18:00:14.368Z,32.40
2019-06-27T18:05:20.180Z,32.30
2019-06-27T18:10:25.993Z,31.70
2019-06-27T18:15:31.820Z,31.30
2019-06-27T18:20:37.954Z,31.00
2019-06-27T18:25:43.828Z,30.80
2019-06-27T18:30:49.647Z,30.70
2019-06-27T18:35:55.427Z,30.80
2019-06-27T18:41:02.481Z,30.30
2019-06-27T18:46:08.344Z,29.70
2019-06-27T18:51:14.172Z,29.40
2019-06-27T18:56:20.007Z,29.10
2019-06-27T19:01:25.843Z,28.60
2019-06-27T19:06:31.624Z,28.10
2019-06-27T19:11:37.753Z,27.70
2019-06-27T19:16:43.532Z,27.50
2019-06-27T19:21:56.702Z,27.50
2019-06-27T19:27:02.574Z,27.20
2019-06-27T19:32:08.361Z,27.30
2019-06-27T19:37:14.174Z,27.10
2019-06-27T19:42:20.117Z,26.90
2019-06-27T19:47:25.927Z,26.90
2019-06-27T19:52:32.039Z,26.80
2019-06-27T19:57:39.409Z,26.80
2019-06-27T20:02:45.231Z,26.70
2019-06-27T20:07:51.044Z,26.50
2019-06-27T20:12:56.836Z,26.40
2019-06-27T20:18:02.619Z,26.40
2019-06-27T20:23:08.468Z,26.10
2019-06-27T20:28:14.263Z,26.20
2019-06-27T20:33:20.076Z,25.90
2019-06-27T20:38:35.041Z,25.90
2019-06-27T20:43:36.918Z,25.70
2019-06-27T20:48:42.800Z,26.00
2019-06-27T20:53:48.600Z,25.90
2019-06-27T20:58:54.413Z,25.80
2019-06-27T21:04:00.412Z,25.90
2019-06-27T21:09:06.449Z,25.90
2019-06-27T21:14:12.244Z,25.70
2019-06-27T21:19:18.583Z,25.70
2019-06-27T21:24:24.371Z,25.70
2019-06-27T21:29:30.146Z,25.70
2019-06-27T21:34:36.042Z,25.50
2019-06-27T21:39:41.940Z,25.50
2019-06-27T21:44:47.975Z,25.40
2019-06-27T21:49:53.804Z,25.40
2019-06-27T21:54:59.607Z,25.30
2019-06-27T22:00:06.517Z,25.20
2019-06-27T22:05:12.754Z,25.30
2019-06-27T22:10:18.678Z,25.10
2019-06-27T22:15:24.476Z,25.10
2019-06-27T22:20:30.255Z,24.80
2019-06-27T22:25:40.688Z,24.40
2019-06-27T22:30:43.477Z,24.30
2019-06-27T22:35:49.285Z,24.50
2019-06-27T22:41:12.521Z,24.60
2019-06-27T22:46:36.148Z,24.50
2019-06-27T22:52:10.056Z,24.60
2019-06-27T22:57:15.856Z,24.40
2019-06-27T23:02:21.656Z,24.20
2019-06-27T23:07:27.437Z,24.00
2019-06-27T23:12:33.271Z,23.90
2019-06-27T23:17:39.105Z,23.80
2019-06-27T23:22:44.889Z,23.70
2019-06-27T23:27:50.848Z,23.80
2019-06-27T23:32:57.038Z,23.80
2019-06-27T23:38:02.811Z,23.90
2019-06-27T23:43:08.632Z,23.80
2019-06-27T23:48:14.449Z,23.70
2019-06-27T23:53:20.247Z,23.70
2019-06-27T23:58:26.034Z,23.80
